Portada
METAR-TAF:

METAR-TAF

Aeroports :

Chiang Mai, Tailàndia

latitud: 18-47N, longitud: 098-59E, altitud: 312 m

Observació

L'informe es va fer fa 34 minuts, a les 00:00 UTC
Vent 5 kt del Nord/Nord-Est
Temperatura 23°C
Humitat 53%
Pressió 1010 hPa
Visibilitat: 5000 m
fum, calitja

METAR: VTCC 020000Z 02005KT 5000 FU HZ NSC 23/13 Q1010 NOSIG

Hora: 07:34 (00:34 UTC)

Pronòstic

L'informe es va fer fa 1 hora i 34 minuts, a les 23:00 UTC
Pronòstic vàlid del 02 a les 00 UTC al 03 a les 06 UTC
Vent 3 kt del Nord
Visibilitat: 7000 m
Evolucionant progressivament
l' 02 a les 01 UTC al 02 a les 03 UTC
Vent 5 kt del Sud

TAF: VTCC 012300Z 0200/0306 36003KT 7000 NSC BECMG 0201/0203 18005KT

Observacions i pronòstics meteorològics de més de 4000 aeroports (METAR i TAF).

Les estacions disponibles són els punts grocs i vermells al mapa.

Posi el ratolí al punt desitjat per veure el nom de l'estació.

Feu clic per veure les observacions i els pronòstics meteorològics.

Per canviar el mapa: feu clic els botons verds amb una creu de color negre per apropar; al botó verd amb un guió per allunyar la imatge; o en les fletxes verdes per a mapes adjacents.


METAR-TAF: